sensor_id;sensor_type;location;lat;lon;timestamp;pressure;altitude;pressure_sealevel;temperature;humidity
74218;BME280;62579;47.288;18.646;2023-02-11T00:01:10;102000.47;;;-3.56;81.55
74218;BME280;62579;47.288;18.646;2023-02-11T00:03:38;101992.81;;;-3.57;81.55
74218;BME280;62579;47.288;18.646;2023-02-11T00:06:06;101995.56;;;-3.54;81.52
74218;BME280;62579;47.288;18.646;2023-02-11T00:08:35;101991.44;;;-3.51;80.98
74218;BME280;62579;47.288;18.646;2023-02-11T00:11:01;101994.31;;;-3.41;80.49
74218;BME280;62579;47.288;18.646;2023-02-11T00:13:26;101992.31;;;-3.47;80.46
74218;BME280;62579;47.288;18.646;2023-02-11T00:15:52;101997.97;;;-3.49;80.45
74218;BME280;62579;47.288;18.646;2023-02-11T00:18:18;102005.66;;;-3.63;81.55
74218;BME280;62579;47.288;18.646;2023-02-11T00:20:43;101992.50;;;-3.56;81.21
74218;BME280;62579;47.288;18.646;2023-02-11T00:23:09;101985.25;;;-3.75;81.97
74218;BME280;62579;47.288;18.646;2023-02-11T00:25:40;101982.41;;;-3.66;81.71
74218;BME280;62579;47.288;18.646;2023-02-11T00:28:05;101985.75;;;-3.69;82.16
74218;BME280;62579;47.288;18.646;2023-02-11T00:30:31;101979.06;;;-3.63;81.96
74218;BME280;62579;47.288;18.646;2023-02-11T00:32:56;101987.88;;;-3.59;81.72
74218;BME280;62579;47.288;18.646;2023-02-11T00:35:22;101981.34;;;-3.61;81.38
74218;BME280;62579;47.288;18.646;2023-02-11T00:37:47;101980.06;;;-3.68;81.32
74218;BME280;62579;47.288;18.646;2023-02-11T00:40:13;101972.28;;;-3.76;81.50
74218;BME280;62579;47.288;18.646;2023-02-11T00:42:41;101969.56;;;-3.80;81.57
74218;BME280;62579;47.288;18.646;2023-02-11T00:45:06;101967.69;;;-3.95;82.30
74218;BME280;62579;47.288;18.646;2023-02-11T00:47:34;101959.59;;;-3.83;81.75
74218;BME280;62579;47.288;18.646;2023-02-11T00:50:00;101959.28;;;-3.97;81.99
74218;BME280;62579;47.288;18.646;2023-02-11T00:52:26;101955.44;;;-3.99;82.33
74218;BME280;62579;47.288;18.646;2023-02-11T00:54:51;101959.97;;;-4.00;82.29
74218;BME280;62579;47.288;18.646;2023-02-11T00:57:17;101949.41;;;-3.96;82.13
74218;BME280;62579;47.288;18.646;2023-02-11T00:59:42;101944.44;;;-3.98;82.08
74218;BME280;62579;47.288;18.646;2023-02-11T01:02:08;101943.59;;;-4.02;82.50
74218;BME280;62579;47.288;18.646;2023-02-11T01:04:33;101956.28;;;-4.11;82.94
74218;BME280;62579;47.288;18.646;2023-02-11T01:06:58;101954.25;;;-4.17;83.13
74218;BME280;62579;47.288;18.646;2023-02-11T01:09:24;101949.00;;;-4.14;82.67
74218;BME280;62579;47.288;18.646;2023-02-11T01:11:49;101942.25;;;-4.11;82.13
74218;BME280;62579;47.288;18.646;2023-02-11T01:14:15;101925.59;;;-4.24;82.35
74218;BME280;62579;47.288;18.646;2023-02-11T01:16:40;101923.06;;;-4.36;83.08
74218;BME280;62579;47.288;18.646;2023-02-11T01:19:05;101923.91;;;-4.32;83.04
74218;BME280;62579;47.288;18.646;2023-02-11T01:21:31;101920.47;;;-4.17;82.47
74218;BME280;62579;47.288;18.646;2023-02-11T01:23:56;101926.56;;;-4.32;83.09
74218;BME280;62579;47.288;18.646;2023-02-11T01:26:22;101922.53;;;-4.26;82.84
74218;BME280;62579;47.288;18.646;2023-02-11T01:28:47;101916.03;;;-4.29;82.73
74218;BME280;62579;47.288;18.646;2023-02-11T01:31:13;101912.31;;;-4.24;82.37
74218;BME280;62579;47.288;18.646;2023-02-11T01:33:39;101905.63;;;-4.18;81.91
74218;BME280;62579;47.288;18.646;2023-02-11T01:36:06;101902.31;;;-4.31;82.34
74218;BME280;62579;47.288;18.646;2023-02-11T01:38:32;101901.53;;;-4.31;82.72
74218;BME280;62579;47.288;18.646;2023-02-11T01:41:03;101894.41;;;-4.27;82.45
74218;BME280;62579;47.288;18.646;2023-02-11T01:43:38;101894.16;;;-4.38;82.88
74218;BME280;62579;47.288;18.646;2023-02-11T01:48:41;101892.38;;;-4.34;82.76
74218;BME280;62579;47.288;18.646;2023-02-11T01:51:16;101883.03;;;-4.28;82.42
74218;BME280;62579;47.288;18.646;2023-02-11T01:53:43;101878.81;;;-4.29;82.70
74218;BME280;62579;47.288;18.646;2023-02-11T01:56:29;101881.75;;;-4.34;82.99
74218;BME280;62579;47.288;18.646;2023-02-11T01:59:20;101873.41;;;-4.32;83.13
74218;BME280;62579;47.288;18.646;2023-02-11T02:01:51;101877.25;;;-4.30;83.07
74218;BME280;62579;47.288;18.646;2023-02-11T02:04:19;101887.37;;;-4.35;83.30
74218;BME280;62579;47.288;18.646;2023-02-11T02:06:55;101882.59;;;-4.45;83.62
74218;BME280;62579;47.288;18.646;2023-02-11T02:09:26;101883.09;;;-4.40;83.48
74218;BME280;62579;47.288;18.646;2023-02-11T02:11:54;101880.44;;;-4.40;83.55
74218;BME280;62579;47.288;18.646;2023-02-11T02:14:20;101886.28;;;-4.34;83.55
74218;BME280;62579;47.288;18.646;2023-02-11T02:16:46;101884.16;;;-4.44;83.99
74218;BME280;62579;47.288;18.646;2023-02-11T02:33:13;101877.44;;;-4.38;83.44
74218;BME280;62579;47.288;18.646;2023-02-11T02:35:57;101873.41;;;-4.32;83.03
74218;BME280;62579;47.288;18.646;2023-02-11T02:38:32;101870.69;;;-4.36;82.99
74218;BME280;62579;47.288;18.646;2023-02-11T02:41:08;101865.84;;;-4.30;82.62
74218;BME280;62579;47.288;18.646;2023-02-11T02:43:37;101867.94;;;-4.39;83.42
74218;BME280;62579;47.288;18.646;2023-02-11T02:46:22;101864.41;;;-4.43;83.58
74218;BME280;62579;47.288;18.646;2023-02-11T02:48:49;101860.66;;;-4.42;83.69
74218;BME280;62579;47.288;18.646;2023-02-11T02:54:38;101848.66;;;-4.36;83.66
74218;BME280;62579;47.288;18.646;2023-02-11T03:03:06;101861.00;;;-4.44;83.81
74218;BME280;62579;47.288;18.646;2023-02-11T03:10:50;101859.12;;;-4.59;85.15
74218;BME280;62579;47.288;18.646;2023-02-11T03:13:18;101866.06;;;-4.54;84.85
74218;BME280;62579;47.288;18.646;2023-02-11T03:15:49;101871.47;;;-4.51;84.72
74218;BME280;62579;47.288;18.646;2023-02-11T03:18:17;101861.50;;;-4.54;84.38
74218;BME280;62579;47.288;18.646;2023-02-11T03:20:48;101874.31;;;-4.44;84.20
74218;BME280;62579;47.288;18.646;2023-02-11T03:26:02;101867.69;;;-4.50;84.67
74218;BME280;62579;47.288;18.646;2023-02-11T03:31:44;101852.41;;;-4.37;84.19
74218;BME280;62579;47.288;18.646;2023-02-11T03:34:26;101854.37;;;-4.34;84.24
74218;BME280;62579;47.288;18.646;2023-02-11T03:36:58;101851.38;;;-4.33;84.05
74218;BME280;62579;47.288;18.646;2023-02-11T03:39:34;101862.62;;;-4.39;84.24
74218;BME280;62579;47.288;18.646;2023-02-11T03:42:02;101851.63;;;-4.38;83.87
74218;BME280;62579;47.288;18.646;2023-02-11T03:44:31;101842.56;;;-4.37;83.97
74218;BME280;62579;47.288;18.646;2023-02-11T03:47:00;101843.75;;;-4.34;84.03
74218;BME280;62579;47.288;18.646;2023-02-11T03:49:27;101836.63;;;-4.30;83.95
74218;BME280;62579;47.288;18.646;2023-02-11T03:51:55;101832.72;;;-4.36;83.96
74218;BME280;62579;47.288;18.646;2023-02-11T03:54:28;101838.06;;;-4.33;83.91
74218;BME280;62579;47.288;18.646;2023-02-11T03:56:56;101823.31;;;-4.30;83.92
74218;BME280;62579;47.288;18.646;2023-02-11T03:59:22;101818.72;;;-4.33;83.95
74218;BME280;62579;47.288;18.646;2023-02-11T04:01:48;101820.19;;;-4.36;83.83
74218;BME280;62579;47.288;18.646;2023-02-11T04:04:13;101811.50;;;-4.33;83.64
74218;BME280;62579;47.288;18.646;2023-02-11T04:06:39;101814.97;;;-4.48;83.63
74218;BME280;62579;47.288;18.646;2023-02-11T04:09:05;101807.94;;;-4.40;83.63
74218;BME280;62579;47.288;18.646;2023-02-11T04:11:30;101801.16;;;-4.38;83.42
74218;BME280;62579;47.288;18.646;2023-02-11T04:13:55;101790.50;;;-4.38;83.34
74218;BME280;62579;47.288;18.646;2023-02-11T04:16:21;101797.94;;;-4.47;83.37
74218;BME280;62579;47.288;18.646;2023-02-11T04:18:46;101791.56;;;-4.42;83.32
74218;BME280;62579;47.288;18.646;2023-02-11T04:21:12;101792.25;;;-4.45;83.41
74218;BME280;62579;47.288;18.646;2023-02-11T04:23:37;101781.22;;;-4.47;83.51
74218;BME280;62579;47.288;18.646;2023-02-11T04:26:03;101779.94;;;-4.53;83.32
74218;BME280;62579;47.288;18.646;2023-02-11T04:28:28;101782.44;;;-4.60;83.57
74218;BME280;62579;47.288;18.646;2023-02-11T04:30:54;101774.28;;;-4.52;83.04
74218;BME280;62579;47.288;18.646;2023-02-11T04:33:20;101769.44;;;-4.46;82.80
74218;BME280;62579;47.288;18.646;2023-02-11T04:35:45;101772.41;;;-4.67;82.10
74218;BME280;62579;47.288;18.646;2023-02-11T04:38:11;101766.97;;;-4.74;82.49
74218;BME280;62579;47.288;18.646;2023-02-11T04:40:36;101767.91;;;-4.82;83.28
74218;BME280;62579;47.288;18.646;2023-02-11T04:43:01;101765.06;;;-4.73;83.28
74218;BME280;62579;47.288;18.646;2023-02-11T04:45:27;101763.13;;;-4.92;83.88
74218;BME280;62579;47.288;18.646;2023-02-11T04:47:52;101771.00;;;-4.96;83.96
74218;BME280;62579;47.288;18.646;2023-02-11T04:50:18;101777.34;;;-5.00;84.20
74218;BME280;62579;47.288;18.646;2023-02-11T04:52:43;101769.72;;;-5.02;84.15
74218;BME280;62579;47.288;18.646;2023-02-11T04:55:08;101775.72;;;-5.05;84.68
74218;BME280;62579;47.288;18.646;2023-02-11T04:57:34;101775.81;;;-5.01;84.37
74218;BME280;62579;47.288;18.646;2023-02-11T04:59:59;101770.50;;;-5.01;84.50
74218;BME280;62579;47.288;18.646;2023-02-11T05:02:25;101767.66;;;-4.93;83.98
74218;BME280;62579;47.288;18.646;2023-02-11T05:04:50;101763.97;;;-4.88;83.59
74218;BME280;62579;47.288;18.646;2023-02-11T05:07:15;101762.34;;;-4.93;83.91
74218;BME280;62579;47.288;18.646;2023-02-11T05:09:41;101769.53;;;-4.93;83.52
74218;BME280;62579;47.288;18.646;2023-02-11T05:12:07;101765.97;;;-5.01;83.77
74218;BME280;62579;47.288;18.646;2023-02-11T05:14:32;101764.09;;;-5.00;83.42
74218;BME280;62579;47.288;18.646;2023-02-11T05:16:58;101764.31;;;-5.05;83.42
74218;BME280;62579;47.288;18.646;2023-02-11T05:19:23;101772.22;;;-5.09;83.96
74218;BME280;62579;47.288;18.646;2023-02-11T05:21:49;101770.50;;;-5.01;83.71
74218;BME280;62579;47.288;18.646;2023-02-11T05:24:14;101766.13;;;-4.94;83.19
74218;BME280;62579;47.288;18.646;2023-02-11T05:26:39;101769.72;;;-5.02;83.35
74218;BME280;62579;47.288;18.646;2023-02-11T05:29:05;101771.59;;;-5.02;83.24
74218;BME280;62579;47.288;18.646;2023-02-11T05:31:30;101779.13;;;-5.04;83.12
74218;BME280;62579;47.288;18.646;2023-02-11T05:33:57;101777.06;;;-5.11;83.32
74218;BME280;62579;47.288;18.646;2023-02-11T05:36:22;101762.00;;;-5.07;83.25
74218;BME280;62579;47.288;18.646;2023-02-11T05:38:47;101771.53;;;-5.06;83.24
74218;BME280;62579;47.288;18.646;2023-02-11T05:41:14;101760.38;;;-4.96;82.88
74218;BME280;62579;47.288;18.646;2023-02-11T05:43:39;101759.00;;;-5.05;83.42
74218;BME280;62579;47.288;18.646;2023-02-11T05:46:05;101765.44;;;-5.06;83.26
74218;BME280;62579;47.288;18.646;2023-02-11T05:48:31;101760.66;;;-5.01;83.22
74218;BME280;62579;47.288;18.646;2023-02-11T05:50:56;101762.63;;;-4.98;83.20
74218;BME280;62579;47.288;18.646;2023-02-11T05:53:22;101771.69;;;-4.99;83.53
74218;BME280;62579;47.288;18.646;2023-02-11T05:55:47;101761.06;;;-4.99;83.11
74218;BME280;62579;47.288;18.646;2023-02-11T05:58:14;101769.44;;;-4.97;83.24
74218;BME280;62579;47.288;18.646;2023-02-11T06:00:39;101766.97;;;-5.05;83.58
74218;BME280;62579;47.288;18.646;2023-02-11T06:03:05;101768.69;;;-4.97;83.40
74218;BME280;62579;47.288;18.646;2023-02-11T06:05:30;101769.53;;;-4.93;83.19
74218;BME280;62579;47.288;18.646;2023-02-11T06:07:56;101767.16;;;-4.98;83.25
74218;BME280;62579;47.288;18.646;2023-02-11T06:10:21;101773.47;;;-5.03;83.06
74218;BME280;62579;47.288;18.646;2023-02-11T06:12:47;101768.00;;;-4.94;82.83
74218;BME280;62579;47.288;18.646;2023-02-11T06:15:13;101768.19;;;-4.87;82.88
74218;BME280;62579;47.288;18.646;2023-02-11T06:17:38;101774.69;;;-4.84;82.90
74218;BME280;62579;47.288;18.646;2023-02-11T06:20:05;101773.31;;;-4.94;83.39
74218;BME280;62579;47.288;18.646;2023-02-11T06:22:32;101774.16;;;-4.90;83.46
74218;BME280;62579;47.288;18.646;2023-02-11T06:24:57;101776.37;;;-4.76;83.35
74218;BME280;62579;47.288;18.646;2023-02-11T06:27:22;101774.25;;;-4.71;83.26
74218;BME280;62579;47.288;18.646;2023-02-11T06:29:48;101775.34;;;-4.72;83.51
74218;BME280;62579;47.288;18.646;2023-02-11T06:32:13;101762.72;;;-4.59;83.38
74218;BME280;62579;47.288;18.646;2023-02-11T06:34:39;101770.41;;;-4.54;83.65
74218;BME280;62579;47.288;18.646;2023-02-11T06:37:05;101761.84;;;-4.48;83.76
74218;BME280;62579;47.288;18.646;2023-02-11T06:39:31;101764.31;;;-4.39;83.80
74218;BME280;62579;47.288;18.646;2023-02-11T06:41:56;101766.06;;;-4.28;84.00
74218;BME280;62579;47.288;18.646;2023-02-11T06:44:22;101770.47;;;-4.16;84.14
74218;BME280;62579;47.288;18.646;2023-02-11T06:46:47;101767.97;;;-4.09;84.67
74218;BME280;62579;47.288;18.646;2023-02-11T06:49:13;101762.56;;;-3.93;84.02
74218;BME280;62579;47.288;18.646;2023-02-11T06:51:39;101764.59;;;-3.87;83.91
74218;BME280;62579;47.288;18.646;2023-02-11T06:54:05;101769.78;;;-3.75;83.55
74218;BME280;62579;47.288;18.646;2023-02-11T06:56:31;101761.63;;;-3.62;83.13
74218;BME280;62579;47.288;18.646;2023-02-11T06:58:57;101756.38;;;-3.59;83.47
74218;BME280;62579;47.288;18.646;2023-02-11T07:01:24;101758.09;;;-3.47;84.21
74218;BME280;62579;47.288;18.646;2023-02-11T07:03:50;101754.44;;;-3.39;84.57
74218;BME280;62579;47.288;18.646;2023-02-11T07:06:19;101752.72;;;-3.28;84.25
74218;BME280;62579;47.288;18.646;2023-02-11T07:08:45;101749.16;;;-3.13;84.06
74218;BME280;62579;47.288;18.646;2023-02-11T07:11:13;101744.59;;;-3.13;84.19
74218;BME280;62579;47.288;18.646;2023-02-11T07:13:39;101743.91;;;-3.10;84.40
74218;BME280;62579;47.288;18.646;2023-02-11T07:16:05;101733.28;;;-3.06;84.15
74218;BME280;62579;47.288;18.646;2023-02-11T07:18:31;101739.03;;;-3.04;83.85
74218;BME280;62579;47.288;18.646;2023-02-11T07:20:57;101741.75;;;-3.00;84.06
74218;BME280;62579;47.288;18.646;2023-02-11T07:23:22;101736.88;;;-2.95;84.07
74218;BME280;62579;47.288;18.646;2023-02-11T07:25:47;101737.34;;;-2.89;83.75
74218;BME280;62579;47.288;18.646;2023-02-11T07:28:13;101742.78;;;-2.82;83.48
74218;BME280;62579;47.288;18.646;2023-02-11T07:30:38;101751.53;;;-2.82;83.26
74218;BME280;62579;47.288;18.646;2023-02-11T07:33:03;101739.84;;;-2.74;82.68
74218;BME280;62579;47.288;18.646;2023-02-11T07:35:29;101737.06;;;-2.55;81.42
74218;BME280;62579;47.288;18.646;2023-02-11T07:37:54;101739.72;;;-2.58;82.13
74218;BME280;62579;47.288;18.646;2023-02-11T07:40:20;101736.31;;;-2.55;81.93
74218;BME280;62579;47.288;18.646;2023-02-11T07:42:45;101731.44;;;-2.50;81.93
74218;BME280;62579;47.288;18.646;2023-02-11T07:45:11;101738.44;;;-2.38;81.34
74218;BME280;62579;47.288;18.646;2023-02-11T07:47:37;101739.66;;;-2.32;81.35
74218;BME280;62579;47.288;18.646;2023-02-11T07:50:03;101738.56;;;-2.27;81.63
74218;BME280;62579;47.288;18.646;2023-02-11T07:52:29;101733.09;;;-2.08;81.34
74218;BME280;62579;47.288;18.646;2023-02-11T07:54:55;101732.38;;;-2.05;81.10
74218;BME280;62579;47.288;18.646;2023-02-11T07:57:21;101723.31;;;-1.97;81.28
74218;BME280;62579;47.288;18.646;2023-02-11T07:59:46;101725.75;;;-1.82;80.87
74218;BME280;62579;47.288;18.646;2023-02-11T08:02:12;101722.03;;;-1.73;81.23
74218;BME280;62579;47.288;18.646;2023-02-11T08:04:37;101719.41;;;-1.70;81.75
74218;BME280;62579;47.288;18.646;2023-02-11T08:07:03;101713.31;;;-1.67;82.70
74218;BME280;62579;47.288;18.646;2023-02-11T08:09:29;101712.25;;;-1.59;83.22
74218;BME280;62579;47.288;18.646;2023-02-11T08:11:54;101711.53;;;-1.52;83.29
74218;BME280;62579;47.288;18.646;2023-02-11T08:14:19;101710.47;;;-1.44;82.79
74218;BME280;62579;47.288;18.646;2023-02-11T08:16:45;101710.94;;;-1.35;82.36
74218;BME280;62579;47.288;18.646;2023-02-11T08:19:13;101704.91;;;-1.25;81.73
74218;BME280;62579;47.288;18.646;2023-02-11T08:21:39;101700.44;;;-1.10;81.40
74218;BME280;62579;47.288;18.646;2023-02-11T08:24:05;101697.44;;;-1.02;81.17
74218;BME280;62579;47.288;18.646;2023-02-11T08:26:37;101710.47;;;-0.93;81.64
74218;BME280;62579;47.288;18.646;2023-02-11T08:29:07;101722.56;;;-1.10;82.92
74218;BME280;62579;47.288;18.646;2023-02-11T08:31:36;101714.66;;;-0.96;83.12
74218;BME280;62579;47.288;18.646;2023-02-11T08:34:02;101707.16;;;-0.76;82.75
74218;BME280;62579;47.288;18.646;2023-02-11T08:36:31;101713.34;;;-0.58;82.35
74218;BME280;62579;47.288;18.646;2023-02-11T08:38:58;101703.88;;;-0.48;82.52
74218;BME280;62579;47.288;18.646;2023-02-11T08:41:24;101706.91;;;-0.46;84.21
74218;BME280;62579;47.288;18.646;2023-02-11T08:43:50;101704.59;;;-0.55;83.97
74218;BME280;62579;47.288;18.646;2023-02-11T08:46:17;101693.12;;;-0.52;83.26
74218;BME280;62579;47.288;18.646;2023-02-11T08:48:44;101696.94;;;-0.53;83.63
74218;BME280;62579;47.288;18.646;2023-02-11T08:51:13;101708.37;;;-0.56;83.24
74218;BME280;62579;47.288;18.646;2023-02-11T08:53:39;101708.09;;;-0.40;82.21
74218;BME280;62579;47.288;18.646;2023-02-11T08:56:05;101705.06;;;-0.32;82.38
74218;BME280;62579;47.288;18.646;2023-02-11T08:58:31;101713.81;;;-0.42;82.52
74218;BME280;62579;47.288;18.646;2023-02-11T09:00:56;101708.53;;;-0.24;81.89
74218;BME280;62579;47.288;18.646;2023-02-11T09:03:21;101710.09;;;-0.13;81.57
74218;BME280;62579;47.288;18.646;2023-02-11T09:05:48;101700.56;;;0.00;81.32
74218;BME280;62579;47.288;18.646;2023-02-11T09:08:15;101695.25;;;0.15;80.39
74218;BME280;62579;47.288;18.646;2023-02-11T09:10:42;101701.78;;;0.21;80.69
74218;BME280;62579;47.288;18.646;2023-02-11T09:13:07;101701.03;;;0.34;80.54
74218;BME280;62579;47.288;18.646;2023-02-11T09:15:33;101699.50;;;0.58;80.30
74218;BME280;62579;47.288;18.646;2023-02-11T09:17:59;101699.13;;;0.70;80.14
74218;BME280;62579;47.288;18.646;2023-02-11T09:20:26;101697.22;;;0.85;80.65
74218;BME280;62579;47.288;18.646;2023-02-11T09:22:53;101697.19;;;0.95;78.77
74218;BME280;62579;47.288;18.646;2023-02-11T09:25:19;101695.25;;;1.13;78.34
74218;BME280;62579;47.288;18.646;2023-02-11T09:27:44;101695.63;;;1.23;77.34
74218;BME280;62579;47.288;18.646;2023-02-11T09:30:10;101677.59;;;1.37;76.55
74218;BME280;62579;47.288;18.646;2023-02-11T09:32:36;101676.31;;;1.59;75.78
74218;BME280;62579;47.288;18.646;2023-02-11T09:35:01;101667.78;;;1.82;75.30
74218;BME280;62579;47.288;18.646;2023-02-11T09:37:27;101665.34;;;2.05;74.09
74218;BME280;62579;47.288;18.646;2023-02-11T09:39:52;101669.41;;;2.31;72.46
74218;BME280;62579;47.288;18.646;2023-02-11T09:42:44;101669.28;;;2.45;69.62
74218;BME280;62579;47.288;18.646;2023-02-11T09:45:16;101674.22;;;2.54;67.53
74218;BME280;62579;47.288;18.646;2023-02-11T09:47:47;101657.28;;;2.57;70.24
74218;BME280;62579;47.288;18.646;2023-02-11T09:50:18;101660.66;;;2.68;70.38
74218;BME280;62579;47.288;18.646;2023-02-11T09:52:53;101650.59;;;2.75;70.08
74218;BME280;62579;47.288;18.646;2023-02-11T09:55:24;101649.81;;;2.75;70.36
74218;BME280;62579;47.288;18.646;2023-02-11T09:57:50;101651.34;;;2.79;70.31
74218;BME280;62579;47.288;18.646;2023-02-11T10:08:38;101634.72;;;3.25;65.77
74218;BME280;62579;47.288;18.646;2023-02-11T10:22:46;101621.69;;;4.31;54.74
74218;BME280;62579;47.288;18.646;2023-02-11T10:27:42;101616.87;;;4.42;55.02
74218;BME280;62579;47.288;18.646;2023-02-11T10:30:22;101612.78;;;4.57;54.63
74218;BME280;62579;47.288;18.646;2023-02-11T10:32:56;101609.69;;;4.58;56.19
74218;BME280;62579;47.288;18.646;2023-02-11T10:35:25;101604.22;;;4.62;58.10
74218;BME280;62579;47.288;18.646;2023-02-11T10:37:52;101607.28;;;4.64;59.19
74218;BME280;62579;47.288;18.646;2023-02-11T10:40:24;101592.44;;;4.75;58.67
74218;BME280;62579;47.288;18.646;2023-02-11T10:43:03;101592.97;;;4.67;59.28
74218;BME280;62579;47.288;18.646;2023-02-11T10:48:02;101596.09;;;4.85;57.85
74218;BME280;62579;47.288;18.646;2023-02-11T10:50:29;101588.69;;;5.09;55.20
74218;BME280;62579;47.288;18.646;2023-02-11T10:53:17;101576.25;;;5.15;55.16
74218;BME280;62579;47.288;18.646;2023-02-11T10:55:51;101586.97;;;5.18;55.42
74218;BME280;62579;47.288;18.646;2023-02-11T10:58:35;101574.41;;;5.28;56.46
74218;BME280;62579;47.288;18.646;2023-02-11T11:01:03;101567.69;;;5.36;55.60
74218;BME280;62579;47.288;18.646;2023-02-11T11:03:35;101572.47;;;5.48;59.75
74218;BME280;62579;47.288;18.646;2023-02-11T11:06:05;101567.66;;;5.56;55.50
74218;BME280;62579;47.288;18.646;2023-02-11T11:08:48;101564.97;;;5.72;55.59
74218;BME280;62579;47.288;18.646;2023-02-11T11:11:22;101561.00;;;5.76;59.50
74218;BME280;62579;47.288;18.646;2023-02-11T11:16:28;101559.78;;;5.97;59.70
74218;BME280;62579;47.288;18.646;2023-02-11T11:21:42;101547.16;;;5.74;59.62
74218;BME280;62579;47.288;18.646;2023-02-11T11:24:31;101544.84;;;5.92;59.22
74218;BME280;62579;47.288;18.646;2023-02-11T11:27:01;101539.09;;;6.07;58.17
74218;BME280;62579;47.288;18.646;2023-02-11T11:29:45;101534.97;;;6.02;58.48
74218;BME280;62579;47.288;18.646;2023-02-11T11:32:20;101526.97;;;6.27;57.97
74218;BME280;62579;47.288;18.646;2023-02-11T11:34:54;101520.72;;;6.30;56.40
74218;BME280;62579;47.288;18.646;2023-02-11T11:37:29;101516.34;;;6.20;56.93
74218;BME280;62579;47.288;18.646;2023-02-11T11:40:20;101501.50;;;6.12;56.63
74218;BME280;62579;47.288;18.646;2023-02-11T11:45:38;101503.22;;;6.35;55.17
74218;BME280;62579;47.288;18.646;2023-02-11T11:48:17;101505.50;;;6.36;53.04
74218;BME280;62579;47.288;18.646;2023-02-11T11:50:55;101504.16;;;6.57;49.41
74218;BME280;62579;47.288;18.646;2023-02-11T11:56:03;101480.34;;;6.93;48.39
74218;BME280;62579;47.288;18.646;2023-02-11T11:58:32;101468.66;;;7.09;47.92
74218;BME280;62579;47.288;18.646;2023-02-11T12:09:03;101455.00;;;7.00;49.74
74218;BME280;62579;47.288;18.646;2023-02-11T12:14:32;101457.28;;;7.39;46.53
74218;BME280;62579;47.288;18.646;2023-02-11T12:19:47;101447.69;;;7.72;44.81
74218;BME280;62579;47.288;18.646;2023-02-11T12:22:44;101443.13;;;7.82;45.09
74218;BME280;62579;47.288;18.646;2023-02-11T12:25:27;101443.00;;;7.85;45.26
74218;BME280;62579;47.288;18.646;2023-02-11T12:33:18;101422.78;;;7.99;44.53
74218;BME280;62579;47.288;18.646;2023-02-11T12:35:57;101415.69;;;8.14;44.67
74218;BME280;62579;47.288;18.646;2023-02-11T12:41:24;101397.16;;;8.34;43.74
74218;BME280;62579;47.288;18.646;2023-02-11T12:52:55;101375.63;;;7.97;42.84
74218;BME280;62579;47.288;18.646;2023-02-11T12:55:27;101374.94;;;8.05;42.80
74218;BME280;62579;47.288;18.646;2023-02-11T12:57:56;101384.81;;;7.99;43.01
74218;BME280;62579;47.288;18.646;2023-02-11T13:00:44;101378.97;;;8.01;43.06
74218;BME280;62579;47.288;18.646;2023-02-11T13:08:21;101354.97;;;7.90;42.97
74218;BME280;62579;47.288;18.646;2023-02-11T13:10:53;101360.19;;;8.06;43.03
74218;BME280;62579;47.288;18.646;2023-02-11T13:13:24;101350.22;;;8.03;42.41
74218;BME280;62579;47.288;18.646;2023-02-11T13:15:55;101348.13;;;8.07;42.78
74218;BME280;62579;47.288;18.646;2023-02-11T13:21:07;101342.28;;;8.30;42.58
74218;BME280;62579;47.288;18.646;2023-02-11T13:26:19;101348.25;;;8.25;41.80
74218;BME280;62579;47.288;18.646;2023-02-11T13:31:19;101342.13;;;8.34;43.01
74218;BME280;62579;47.288;18.646;2023-02-11T13:33:45;101341.25;;;8.37;40.36
74218;BME280;62579;47.288;18.646;2023-02-11T13:36:18;101328.81;;;8.49;40.70
74218;BME280;62579;47.288;18.646;2023-02-11T13:38:53;101319.25;;;8.66;38.62
74218;BME280;62579;47.288;18.646;2023-02-11T13:41:39;101332.28;;;8.49;37.35
74218;BME280;62579;47.288;18.646;2023-02-11T13:47:05;101319.06;;;8.29;37.84
74218;BME280;62579;47.288;18.646;2023-02-11T13:49:34;101324.28;;;8.24;37.66
74218;BME280;62579;47.288;18.646;2023-02-11T13:52:03;101330.16;;;8.22;37.61
74218;BME280;62579;47.288;18.646;2023-02-11T13:54:36;101328.56;;;8.34;38.25
74218;BME280;62579;47.288;18.646;2023-02-11T13:59:47;101322.75;;;8.44;38.83
74218;BME280;62579;47.288;18.646;2023-02-11T14:11:00;101333.16;;;8.46;39.69
74218;BME280;62579;47.288;18.646;2023-02-11T14:13:29;101319.72;;;8.42;40.39
74218;BME280;62579;47.288;18.646;2023-02-11T14:18:36;101314.91;;;8.16;41.48
74218;BME280;62579;47.288;18.646;2023-02-11T14:21:21;101325.91;;;7.91;41.52
74218;BME280;62579;47.288;18.646;2023-02-11T14:23:49;101311.63;;;7.99;41.58
74218;BME280;62579;47.288;18.646;2023-02-11T14:29:10;101319.72;;;7.90;42.01
74218;BME280;62579;47.288;18.646;2023-02-11T14:31:41;101326.13;;;7.83;41.76
74218;BME280;62579;47.288;18.646;2023-02-11T14:40:09;101351.06;;;7.57;42.90
74218;BME280;62579;47.288;18.646;2023-02-11T14:42:39;101355.87;;;7.40;43.56
74218;BME280;62579;47.288;18.646;2023-02-11T14:45:08;101356.00;;;7.37;43.75
74218;BME280;62579;47.288;18.646;2023-02-11T14:47:41;101339.97;;;7.30;44.46
74218;BME280;62579;47.288;18.646;2023-02-11T14:50:18;101329.28;;;7.26;44.30
74218;BME280;62579;47.288;18.646;2023-02-11T14:52:47;101328.31;;;7.20;44.28
74218;BME280;62579;47.288;18.646;2023-02-11T14:55:22;101321.31;;;7.10;44.91
74218;BME280;62579;47.288;18.646;2023-02-11T14:58:23;101323.03;;;7.04;45.40
74218;BME280;62579;47.288;18.646;2023-02-11T15:08:25;101304.53;;;6.90;45.59
74218;BME280;62579;47.288;18.646;2023-02-11T15:10:52;101311.34;;;6.94;45.61
74218;BME280;62579;47.288;18.646;2023-02-11T15:13:21;101308.00;;;6.90;45.63
74218;BME280;62579;47.288;18.646;2023-02-11T15:15:54;101307.34;;;6.86;46.12
74218;BME280;62579;47.288;18.646;2023-02-11T15:18:26;101296.44;;;6.77;45.74
74218;BME280;62579;47.288;18.646;2023-02-11T15:20:53;101302.16;;;6.79;45.55